sensor_id;sensor_type;location;lat;lon;timestamp;pressure;altitude;pressure_sealevel;temperature;humidity
46379;BME280;32084;42.254;22.744;2022-08-19T00:01:10;95043.41;;;18.81;76.20
46379;BME280;32084;42.254;22.744;2022-08-19T00:03:37;95048.38;;;18.78;75.72
46379;BME280;32084;42.254;22.744;2022-08-19T00:06:03;95032.78;;;18.66;75.14
46379;BME280;32084;42.254;22.744;2022-08-19T00:08:29;95040.56;;;18.49;76.26
46379;BME280;32084;42.254;22.744;2022-08-19T00:10:55;95032.63;;;18.54;75.51
46379;BME280;32084;42.254;22.744;2022-08-19T00:13:21;95025.53;;;18.60;76.31
46379;BME280;32084;42.254;22.744;2022-08-19T00:15:47;95019.91;;;18.55;76.71
46379;BME280;32084;42.254;22.744;2022-08-19T00:18:13;95022.41;;;18.57;76.78
46379;BME280;32084;42.254;22.744;2022-08-19T00:20:39;95037.63;;;18.58;77.49
46379;BME280;32084;42.254;22.744;2022-08-19T00:23:06;95043.00;;;18.71;77.73
46379;BME280;32084;42.254;22.744;2022-08-19T00:25:32;95040.47;;;18.76;77.14
46379;BME280;32084;42.254;22.744;2022-08-19T00:27:59;95048.44;;;18.64;77.12
46379;BME280;32084;42.254;22.744;2022-08-19T00:30:25;95044.06;;;18.63;77.02
46379;BME280;32084;42.254;22.744;2022-08-19T00:32:53;95047.22;;;18.53;77.51
46379;BME280;32084;42.254;22.744;2022-08-19T00:35:21;95044.78;;;18.39;78.03
46379;BME280;32084;42.254;22.744;2022-08-19T00:37:47;95047.66;;;18.44;77.68
46379;BME280;32084;42.254;22.744;2022-08-19T00:40:13;95038.16;;;18.14;77.93
46379;BME280;32084;42.254;22.744;2022-08-19T00:42:40;95040.84;;;18.14;77.94
46379;BME280;32084;42.254;22.744;2022-08-19T00:45:12;95033.97;;;18.25;77.27
46379;BME280;32084;42.254;22.744;2022-08-19T00:47:38;95028.75;;;18.30;77.86
46379;BME280;32084;42.254;22.744;2022-08-19T00:50:06;95022.31;;;18.25;77.89
46379;BME280;32084;42.254;22.744;2022-08-19T00:52:34;95028.34;;;18.13;78.33
46379;BME280;32084;42.254;22.744;2022-08-19T00:55:03;95024.19;;;18.24;77.42
46379;BME280;32084;42.254;22.744;2022-08-19T00:57:35;95022.75;;;18.22;78.26
46379;BME280;32084;42.254;22.744;2022-08-19T01:00:05;95025.03;;;18.11;78.23
46379;BME280;32084;42.254;22.744;2022-08-19T01:02:31;95018.38;;;18.21;77.49
46379;BME280;32084;42.254;22.744;2022-08-19T01:04:59;95026.06;;;18.24;77.76
46379;BME280;32084;42.254;22.744;2022-08-19T01:07:25;95033.59;;;18.08;78.68
46379;BME280;32084;42.254;22.744;2022-08-19T01:09:52;95034.44;;;18.02;78.85
46379;BME280;32084;42.254;22.744;2022-08-19T01:12:18;95033.19;;;17.98;78.54
46379;BME280;32084;42.254;22.744;2022-08-19T01:14:44;95030.69;;;17.90;79.28
46379;BME280;32084;42.254;22.744;2022-08-19T01:17:11;95028.34;;;18.13;77.46
46379;BME280;32084;42.254;22.744;2022-08-19T01:19:39;95035.84;;;18.11;78.53
46379;BME280;32084;42.254;22.744;2022-08-19T01:22:14;95038.78;;;18.03;78.80
46379;BME280;32084;42.254;22.744;2022-08-19T01:24:42;95040.88;;;18.01;79.36
46379;BME280;32084;42.254;22.744;2022-08-19T01:27:08;95048.38;;;17.86;79.63
46379;BME280;32084;42.254;22.744;2022-08-19T01:29:36;95042.94;;;17.79;79.94
46379;BME280;32084;42.254;22.744;2022-08-19T01:32:02;95045.22;;;17.82;79.20
46379;BME280;32084;42.254;22.744;2022-08-19T01:34:28;95038.59;;;17.98;78.58
46379;BME280;32084;42.254;22.744;2022-08-19T01:36:54;95040.25;;;17.99;78.48
46379;BME280;32084;42.254;22.744;2022-08-19T01:39:22;95039.63;;;17.97;78.68
46379;BME280;32084;42.254;22.744;2022-08-19T01:41:48;95039.84;;;17.89;79.31
46379;BME280;32084;42.254;22.744;2022-08-19T01:44:15;95036.50;;;17.67;79.66
46379;BME280;32084;42.254;22.744;2022-08-19T01:46:42;95041.28;;;17.51;80.83
46379;BME280;32084;42.254;22.744;2022-08-19T01:49:09;95044.38;;;17.35;81.33
46379;BME280;32084;42.254;22.744;2022-08-19T01:51:36;95038.75;;;17.30;81.91
46379;BME280;32084;42.254;22.744;2022-08-19T01:54:02;95045.22;;;17.49;81.74
46379;BME280;32084;42.254;22.744;2022-08-19T01:56:28;95043.56;;;17.54;81.26
46379;BME280;32084;42.254;22.744;2022-08-19T01:59:02;95040.66;;;17.56;81.00
46379;BME280;32084;42.254;22.744;2022-08-19T02:01:28;95041.06;;;17.60;81.52
46379;BME280;32084;42.254;22.744;2022-08-19T02:03:58;95047.28;;;17.47;81.21
46379;BME280;32084;42.254;22.744;2022-08-19T02:06:24;95047.28;;;17.33;81.76
46379;BME280;32084;42.254;22.744;2022-08-19T02:08:50;95044.78;;;17.32;82.21
46379;BME280;32084;42.254;22.744;2022-08-19T02:11:23;95045.81;;;17.37;81.70
46379;BME280;32084;42.254;22.744;2022-08-19T02:13:52;95037.94;;;17.23;81.97
46379;BME280;32084;42.254;22.744;2022-08-19T02:16:19;95039.56;;;17.17;82.19
46379;BME280;32084;42.254;22.744;2022-08-19T02:18:45;95039.38;;;17.32;82.38
46379;BME280;32084;42.254;22.744;2022-08-19T02:21:17;95040.84;;;17.34;82.00
46379;BME280;32084;42.254;22.744;2022-08-19T02:23:43;95038.75;;;17.43;81.45
46379;BME280;32084;42.254;22.744;2022-08-19T02:26:10;95041.09;;;17.53;81.02
46379;BME280;32084;42.254;22.744;2022-08-19T02:28:36;95036.47;;;17.33;81.62
46379;BME280;32084;42.254;22.744;2022-08-19T02:31:02;95031.03;;;17.20;81.75
46379;BME280;32084;42.254;22.744;2022-08-19T02:33:28;95033.31;;;17.16;82.14
46379;BME280;32084;42.254;22.744;2022-08-19T02:35:54;95038.56;;;17.38;80.88
46379;BME280;32084;42.254;22.744;2022-08-19T02:38:20;95027.97;;;17.36;81.68
46379;BME280;32084;42.254;22.744;2022-08-19T02:41:02;95031.91;;;17.41;81.76
46379;BME280;32084;42.254;22.744;2022-08-19T02:43:30;95030.03;;;17.54;80.77
46379;BME280;32084;42.254;22.744;2022-08-19T02:45:56;95039.00;;;17.42;81.18
46379;BME280;32084;42.254;22.744;2022-08-19T02:48:23;95044.75;;;17.18;81.89
46379;BME280;32084;42.254;22.744;2022-08-19T02:50:50;95046.66;;;17.31;81.61
46379;BME280;32084;42.254;22.744;2022-08-19T02:53:21;95043.06;;;17.11;82.15
46379;BME280;32084;42.254;22.744;2022-08-19T02:55:48;95035.13;;;16.89;83.26
46379;BME280;32084;42.254;22.744;2022-08-19T02:58:14;95038.25;;;17.00;83.43
46379;BME280;32084;42.254;22.744;2022-08-19T03:00:45;95046.16;;;16.94;83.48
46379;BME280;32084;42.254;22.744;2022-08-19T03:03:11;95045.56;;;17.06;83.12
46379;BME280;32084;42.254;22.744;2022-08-19T03:05:38;95049.72;;;17.02;83.05
46379;BME280;32084;42.254;22.744;2022-08-19T03:08:04;95042.44;;;17.02;83.19
46379;BME280;32084;42.254;22.744;2022-08-19T03:10:32;95040.59;;;17.09;82.94
46379;BME280;32084;42.254;22.744;2022-08-19T03:12:58;95050.97;;;17.06;83.28
46379;BME280;32084;42.254;22.744;2022-08-19T03:15:24;95046.78;;;16.96;83.14
46379;BME280;32084;42.254;22.744;2022-08-19T03:17:50;95052.63;;;17.00;83.78
46379;BME280;32084;42.254;22.744;2022-08-19T03:20:16;95046.59;;;17.05;83.46
46379;BME280;32084;42.254;22.744;2022-08-19T03:22:42;95048.28;;;17.06;83.48
46379;BME280;32084;42.254;22.744;2022-08-19T03:25:08;95043.63;;;16.86;84.08
46379;BME280;32084;42.254;22.744;2022-08-19T03:27:34;95041.34;;;16.83;83.81
46379;BME280;32084;42.254;22.744;2022-08-19T03:30:00;95040.75;;;16.94;83.25
46379;BME280;32084;42.254;22.744;2022-08-19T03:32:27;95039.72;;;16.95;83.68
46379;BME280;32084;42.254;22.744;2022-08-19T03:34:53;95046.31;;;16.86;83.48
46379;BME280;32084;42.254;22.744;2022-08-19T03:37:19;95051.44;;;16.74;84.02
46379;BME280;32084;42.254;22.744;2022-08-19T03:39:45;95052.16;;;16.83;83.75
46379;BME280;32084;42.254;22.744;2022-08-19T03:42:11;95056.53;;;16.91;83.59
46379;BME280;32084;42.254;22.744;2022-08-19T03:44:37;95057.56;;;16.90;83.22
46379;BME280;32084;42.254;22.744;2022-08-19T03:47:04;95063.88;;;16.69;83.72
46379;BME280;32084;42.254;22.744;2022-08-19T03:49:31;95068.59;;;16.53;85.37
46379;BME280;32084;42.254;22.744;2022-08-19T03:51:58;95064.91;;;16.61;85.19
46379;BME280;32084;42.254;22.744;2022-08-19T03:54:26;95075.31;;;16.71;84.55
46379;BME280;32084;42.254;22.744;2022-08-19T03:56:53;95080.03;;;16.90;83.84
46379;BME280;32084;42.254;22.744;2022-08-19T03:59:21;95083.78;;;17.03;82.88
46379;BME280;32084;42.254;22.744;2022-08-19T04:01:51;95082.75;;;17.04;83.55
46379;BME280;32084;42.254;22.744;2022-08-19T04:04:17;95088.31;;;16.89;83.31
46379;BME280;32084;42.254;22.744;2022-08-19T04:06:43;95092.56;;;16.76;84.19
46379;BME280;32084;42.254;22.744;2022-08-19T04:09:09;95093.09;;;16.87;84.08
46379;BME280;32084;42.254;22.744;2022-08-19T04:11:39;95095.78;;;16.93;84.15
46379;BME280;32084;42.254;22.744;2022-08-19T04:14:07;95094.78;;;16.94;84.50
46379;BME280;32084;42.254;22.744;2022-08-19T04:16:34;95103.94;;;17.07;83.91
46379;BME280;32084;42.254;22.744;2022-08-19T04:19:00;95102.53;;;17.17;84.26
46379;BME280;32084;42.254;22.744;2022-08-19T04:21:27;95104.44;;;17.30;83.65
46379;BME280;32084;42.254;22.744;2022-08-19T04:23:54;95112.97;;;17.34;83.93
46379;BME280;32084;42.254;22.744;2022-08-19T04:26:21;95110.91;;;17.43;84.02
46379;BME280;32084;42.254;22.744;2022-08-19T04:28:48;95115.50;;;17.55;84.04
46379;BME280;32084;42.254;22.744;2022-08-19T04:31:15;95114.28;;;17.65;83.81
46379;BME280;32084;42.254;22.744;2022-08-19T04:33:42;95115.09;;;17.52;83.44
46379;BME280;32084;42.254;22.744;2022-08-19T04:36:15;95115.72;;;17.54;84.56
46379;BME280;32084;42.254;22.744;2022-08-19T04:38:41;95107.22;;;17.70;83.73
46379;BME280;32084;42.254;22.744;2022-08-19T04:41:07;95113.69;;;17.76;84.54
46379;BME280;32084;42.254;22.744;2022-08-19T04:43:52;95117.22;;;17.83;84.14
46379;BME280;32084;42.254;22.744;2022-08-19T04:46:18;95100.63;;;17.93;84.35
46379;BME280;32084;42.254;22.744;2022-08-19T04:48:44;95105.41;;;18.04;83.45
46379;BME280;32084;42.254;22.744;2022-08-19T04:51:11;95113.91;;;18.34;82.81
46379;BME280;32084;42.254;22.744;2022-08-19T04:53:39;95109.06;;;18.63;81.46
46379;BME280;32084;42.254;22.744;2022-08-19T04:56:07;95107.78;;;18.72;83.42
46379;BME280;32084;42.254;22.744;2022-08-19T04:58:34;95105.28;;;18.71;82.87
46379;BME280;32084;42.254;22.744;2022-08-19T05:01:00;95107.56;;;18.81;83.09
46379;BME280;32084;42.254;22.744;2022-08-19T05:03:27;95112.69;;;19.02;82.56
46379;BME280;32084;42.254;22.744;2022-08-19T05:05:53;95112.16;;;19.25;82.20
46379;BME280;32084;42.254;22.744;2022-08-19T05:08:20;95107.75;;;19.38;81.23
46379;BME280;32084;42.254;22.744;2022-08-19T05:10:48;95108.09;;;19.48;80.06
46379;BME280;32084;42.254;22.744;2022-08-19T05:13:15;95108.28;;;19.53;79.74
46379;BME280;32084;42.254;22.744;2022-08-19T05:15:42;95100.06;;;19.66;80.40
46379;BME280;32084;42.254;22.744;2022-08-19T05:18:08;95106.31;;;19.74;80.27
46379;BME280;32084;42.254;22.744;2022-08-19T05:20:53;95110.81;;;19.86;79.54
46379;BME280;32084;42.254;22.744;2022-08-19T05:23:37;95110.94;;;19.98;79.12
46379;BME280;32084;42.254;22.744;2022-08-19T05:26:03;95112.31;;;20.07;76.57
46379;BME280;32084;42.254;22.744;2022-08-19T05:28:29;95111.59;;;20.19;77.66
46379;BME280;32084;42.254;22.744;2022-08-19T05:30:55;95107.09;;;20.31;74.53
46379;BME280;32084;42.254;22.744;2022-08-19T05:33:22;95112.47;;;20.38;75.80
46379;BME280;32084;42.254;22.744;2022-08-19T05:35:49;95120.28;;;20.53;73.92
46379;BME280;32084;42.254;22.744;2022-08-19T05:38:16;95108.31;;;20.60;72.04
46379;BME280;32084;42.254;22.744;2022-08-19T05:40:43;95109.31;;;20.66;73.49
46379;BME280;32084;42.254;22.744;2022-08-19T05:43:12;95113.06;;;20.65;71.29
46379;BME280;32084;42.254;22.744;2022-08-19T05:45:41;95107.78;;;20.89;71.95
46379;BME280;32084;42.254;22.744;2022-08-19T05:48:08;95112.78;;;21.10;70.08
46379;BME280;32084;42.254;22.744;2022-08-19T05:50:37;95109.50;;;21.20;72.02
46379;BME280;32084;42.254;22.744;2022-08-19T05:53:03;95115.47;;;21.29;71.31
46379;BME280;32084;42.254;22.744;2022-08-19T05:55:29;95113.47;;;21.36;72.51
46379;BME280;32084;42.254;22.744;2022-08-19T05:57:55;95114.84;;;21.45;73.04
46379;BME280;32084;42.254;22.744;2022-08-19T06:00:21;95107.16;;;21.42;70.79
46379;BME280;32084;42.254;22.744;2022-08-19T06:02:48;95104.66;;;21.59;70.60
46379;BME280;32084;42.254;22.744;2022-08-19T06:05:14;95113.28;;;21.68;73.52
46379;BME280;32084;42.254;22.744;2022-08-19T06:07:40;95114.72;;;21.70;70.75
46379;BME280;32084;42.254;22.744;2022-08-19T06:10:08;95103.75;;;21.77;72.00
46379;BME280;32084;42.254;22.744;2022-08-19T06:12:34;95110.03;;;21.89;70.54
46379;BME280;32084;42.254;22.744;2022-08-19T06:15:02;95105.81;;;21.93;69.78
46379;BME280;32084;42.254;22.744;2022-08-19T06:17:29;95118.72;;;22.10;71.11
46379;BME280;32084;42.254;22.744;2022-08-19T06:19:56;95116.03;;;22.21;70.02
46379;BME280;32084;42.254;22.744;2022-08-19T06:22:22;95114.19;;;22.46;67.93
46379;BME280;32084;42.254;22.744;2022-08-19T06:24:48;95113.94;;;22.59;67.03
46379;BME280;32084;42.254;22.744;2022-08-19T06:27:18;95118.66;;;22.87;67.90
46379;BME280;32084;42.254;22.744;2022-08-19T06:29:44;95114.16;;;23.05;66.35
46379;BME280;32084;42.254;22.744;2022-08-19T06:32:12;95113.53;;;23.14;66.29
46379;BME280;32084;42.254;22.744;2022-08-19T06:34:40;95117.56;;;23.24;65.89
46379;BME280;32084;42.254;22.744;2022-08-19T06:37:06;95117.25;;;23.49;66.20
46379;BME280;32084;42.254;22.744;2022-08-19T06:39:33;95114.63;;;23.83;65.95
46379;BME280;32084;42.254;22.744;2022-08-19T06:42:01;95114.06;;;23.97;64.89
46379;BME280;32084;42.254;22.744;2022-08-19T06:44:30;95122.47;;;24.08;62.67
46379;BME280;32084;42.254;22.744;2022-08-19T06:47:01;95123.88;;;24.27;63.73
46379;BME280;32084;42.254;22.744;2022-08-19T06:49:28;95123.16;;;24.66;64.67
46379;BME280;32084;42.254;22.744;2022-08-19T06:51:56;95124.69;;;24.96;61.20
46379;BME280;32084;42.254;22.744;2022-08-19T06:54:23;95121.00;;;25.07;61.15
46379;BME280;32084;42.254;22.744;2022-08-19T06:56:50;95109.78;;;25.25;62.59
46379;BME280;32084;42.254;22.744;2022-08-19T06:59:17;95113.06;;;25.49;60.33
46379;BME280;32084;42.254;22.744;2022-08-19T07:01:45;95117.16;;;25.69;59.93
46379;BME280;32084;42.254;22.744;2022-08-19T07:04:13;95112.28;;;25.98;57.80
46379;BME280;32084;42.254;22.744;2022-08-19T07:06:39;95110.22;;;26.10;58.89
46379;BME280;32084;42.254;22.744;2022-08-19T07:09:06;95101.25;;;26.20;58.07
46379;BME280;32084;42.254;22.744;2022-08-19T07:11:32;95105.81;;;26.42;57.26
46379;BME280;32084;42.254;22.744;2022-08-19T07:13:59;95106.03;;;26.67;58.05
46379;BME280;32084;42.254;22.744;2022-08-19T07:16:25;95102.94;;;26.96;55.79
46379;BME280;32084;42.254;22.744;2022-08-19T07:18:53;95102.19;;;27.11;54.26
46379;BME280;32084;42.254;22.744;2022-08-19T07:21:23;95104.19;;;27.26;54.23
46379;BME280;32084;42.254;22.744;2022-08-19T07:23:50;95107.53;;;27.28;53.05
46379;BME280;32084;42.254;22.744;2022-08-19T07:28:45;95109.53;;;27.58;53.81
46379;BME280;32084;42.254;22.744;2022-08-19T07:31:11;95107.13;;;27.72;55.70
46379;BME280;32084;42.254;22.744;2022-08-19T07:33:39;95113.75;;;27.81;53.33
46379;BME280;32084;42.254;22.744;2022-08-19T07:36:06;95105.50;;;27.87;54.47
46379;BME280;32084;42.254;22.744;2022-08-19T07:38:33;95112.34;;;27.79;53.55
46379;BME280;32084;42.254;22.744;2022-08-19T07:41:00;95107.94;;;27.83;55.48
46379;BME280;32084;42.254;22.744;2022-08-19T07:43:26;95106.31;;;27.82;54.44
46379;BME280;32084;42.254;22.744;2022-08-19T07:45:53;95104.13;;;27.84;53.46
46379;BME280;32084;42.254;22.744;2022-08-19T07:48:22;95101.91;;;27.71;55.80
46379;BME280;32084;42.254;22.744;2022-08-19T07:50:54;95103.59;;;27.87;54.67
46379;BME280;32084;42.254;22.744;2022-08-19T07:53:21;95097.84;;;27.89;54.94
46379;BME280;32084;42.254;22.744;2022-08-19T07:55:47;95098.97;;;27.98;55.70
46379;BME280;32084;42.254;22.744;2022-08-19T07:58:16;95095.94;;;27.89;53.74
46379;BME280;32084;42.254;22.744;2022-08-19T08:00:43;95092.84;;;27.75;55.16
46379;BME280;32084;42.254;22.744;2022-08-19T08:03:09;95092.00;;;27.70;54.47
46379;BME280;32084;42.254;22.744;2022-08-19T08:05:35;95088.44;;;27.74;53.49
46379;BME280;32084;42.254;22.744;2022-08-19T08:08:31;95084.06;;;27.83;55.28
46379;BME280;32084;42.254;22.744;2022-08-19T08:10:57;95092.34;;;27.94;54.98
46379;BME280;32084;42.254;22.744;2022-08-19T08:13:23;95089.91;;;28.08;54.17
46379;BME280;32084;42.254;22.744;2022-08-19T08:15:49;95086.59;;;28.06;52.99
46379;BME280;32084;42.254;22.744;2022-08-19T08:18:15;95085.81;;;28.10;55.18
46379;BME280;32084;42.254;22.744;2022-08-19T08:20:41;95080.00;;;28.17;54.20
46379;BME280;32084;42.254;22.744;2022-08-19T08:23:07;95080.31;;;28.26;53.46
46379;BME280;32084;42.254;22.744;2022-08-19T08:25:54;95083.59;;;28.28;53.76
46379;BME280;32084;42.254;22.744;2022-08-19T08:28:20;95075.06;;;28.39;53.33
46379;BME280;32084;42.254;22.744;2022-08-19T08:30:47;95081.97;;;28.42;53.21
46379;BME280;32084;42.254;22.744;2022-08-19T08:33:14;95072.34;;;28.50;53.39
46379;BME280;32084;42.254;22.744;2022-08-19T08:35:42;95073.19;;;28.55;53.01
46379;BME280;32084;42.254;22.744;2022-08-19T08:38:08;95070.41;;;28.66;54.19
46379;BME280;32084;42.254;22.744;2022-08-19T08:40:48;95061.03;;;28.77;53.20
46379;BME280;32084;42.254;22.744;2022-08-19T08:45:48;95075.88;;;28.91;52.42
46379;BME280;32084;42.254;22.744;2022-08-19T08:48:42;95063.47;;;28.94;52.85
46379;BME280;32084;42.254;22.744;2022-08-19T08:51:05;95063.72;;;29.02;50.23
46379;BME280;32084;42.254;22.744;2022-08-19T08:53:33;95062.31;;;29.20;51.34
46379;BME280;32084;42.254;22.744;2022-08-19T08:56:00;95060.91;;;29.28;50.38
46379;BME280;32084;42.254;22.744;2022-08-19T08:58:28;95053.72;;;29.37;50.34
46379;BME280;32084;42.254;22.744;2022-08-19T09:00:57;95053.09;;;29.51;49.95
46379;BME280;32084;42.254;22.744;2022-08-19T09:03:27;95058.88;;;29.54;49.23
46379;BME280;32084;42.254;22.744;2022-08-19T09:11:13;95051.88;;;29.72;49.79
46379;BME280;32084;42.254;22.744;2022-08-19T09:13:46;95048.31;;;29.77;49.10
46379;BME280;32084;42.254;22.744;2022-08-19T09:16:18;95039.97;;;29.87;48.63
46379;BME280;32084;42.254;22.744;2022-08-19T09:21:18;95042.34;;;30.04;49.15
46379;BME280;32084;42.254;22.744;2022-08-19T09:23:46;95038.09;;;30.17;47.34
46379;BME280;32084;42.254;22.744;2022-08-19T09:26:13;95033.84;;;30.35;49.68
46379;BME280;32084;42.254;22.744;2022-08-19T09:28:43;95033.88;;;30.30;46.40
46379;BME280;32084;42.254;22.744;2022-08-19T09:31:10;95031.09;;;30.35;49.53
46379;BME280;32084;42.254;22.744;2022-08-19T09:33:37;95036.56;;;30.40;49.05
46379;BME280;32084;42.254;22.744;2022-08-19T09:36:06;95024.91;;;30.48;48.14
46379;BME280;32084;42.254;22.744;2022-08-19T09:38:33;95017.22;;;30.45;45.35
46379;BME280;32084;42.254;22.744;2022-08-19T09:41:03;95021.22;;;30.58;47.02
46379;BME280;32084;42.254;22.744;2022-08-19T09:43:30;95012.84;;;30.68;47.56
46379;BME280;32084;42.254;22.744;2022-08-19T09:45:56;95013.84;;;30.78;47.88
46379;BME280;32084;42.254;22.744;2022-08-19T09:48:22;95011.88;;;30.83;47.10
46379;BME280;32084;42.254;22.744;2022-08-19T09:50:48;95010.69;;;30.89;45.85
46379;BME280;32084;42.254;22.744;2022-08-19T09:53:16;95004.34;;;30.89;45.66
46379;BME280;32084;42.254;22.744;2022-08-19T09:55:43;94997.72;;;30.90;46.47
46379;BME280;32084;42.254;22.744;2022-08-19T09:58:09;95007.06;;;30.94;43.99
46379;BME280;32084;42.254;22.744;2022-08-19T10:00:37;95000.44;;;30.95;45.43
46379;BME280;32084;42.254;22.744;2022-08-19T10:03:03;94994.63;;;30.97;44.53
46379;BME280;32084;42.254;22.744;2022-08-19T10:05:29;94991.34;;;30.94;44.77
46379;BME280;32084;42.254;22.744;2022-08-19T10:08:13;94981.97;;;30.90;46.62
46379;BME280;32084;42.254;22.744;2022-08-19T10:10:42;94994.41;;;30.93;41.71
46379;BME280;32084;42.254;22.744;2022-08-19T10:13:09;94988.22;;;31.01;42.53
46379;BME280;32084;42.254;22.744;2022-08-19T10:15:35;94989.59;;;31.04;44.14
46379;BME280;32084;42.254;22.744;2022-08-19T10:18:01;94992.50;;;31.12;43.08
46379;BME280;32084;42.254;22.744;2022-08-19T10:20:27;94985.69;;;31.05;40.92
46379;BME280;32084;42.254;22.744;2022-08-19T10:22:55;94980.41;;;31.08;42.98
46379;BME280;32084;42.254;22.744;2022-08-19T10:25:21;94985.34;;;31.11;43.14
46379;BME280;32084;42.254;22.744;2022-08-19T10:27:47;94983.69;;;31.10;41.03
46379;BME280;32084;42.254;22.744;2022-08-19T10:30:13;94982.44;;;31.22;42.45
46379;BME280;32084;42.254;22.744;2022-08-19T10:32:39;94968.63;;;31.22;41.93
46379;BME280;32084;42.254;22.744;2022-08-19T10:35:05;94980.25;;;31.19;38.62
46379;BME280;32084;42.254;22.744;2022-08-19T10:37:34;94967.72;;;31.26;41.04
46379;BME280;32084;42.254;22.744;2022-08-19T10:40:03;94970.16;;;31.33;40.54
46379;BME280;32084;42.254;22.744;2022-08-19T10:42:29;94968.13;;;31.39;41.54
46379;BME280;32084;42.254;22.744;2022-08-19T10:44:56;94972.91;;;31.33;42.13
46379;BME280;32084;42.254;22.744;2022-08-19T10:47:23;94962.97;;;31.32;40.49
46379;BME280;32084;42.254;22.744;2022-08-19T10:49:49;94965.19;;;31.30;39.18
46379;BME280;32084;42.254;22.744;2022-08-19T10:52:34;94962.38;;;31.35;39.90
46379;BME280;32084;42.254;22.744;2022-08-19T10:55:00;94959.31;;;31.37;38.96
46379;BME280;32084;42.254;22.744;2022-08-19T10:57:45;94951.72;;;31.28;38.76
46379;BME280;32084;42.254;22.744;2022-08-19T11:00:11;94951.41;;;31.30;39.24
46379;BME280;32084;42.254;22.744;2022-08-19T11:02:39;94944.25;;;31.29;41.98
46379;BME280;32084;42.254;22.744;2022-08-19T11:05:05;94954.81;;;31.22;39.82
46379;BME280;32084;42.254;22.744;2022-08-19T11:07:32;94950.97;;;31.23;38.97
46379;BME280;32084;42.254;22.744;2022-08-19T11:09:58;94951.72;;;31.28;37.81
46379;BME280;32084;42.254;22.744;2022-08-19T11:12:24;94947.66;;;31.40;38.00
46379;BME280;32084;42.254;22.744;2022-08-19T11:14:50;94940.75;;;31.42;38.97
46379;BME280;32084;42.254;22.744;2022-08-19T11:17:16;94939.09;;;31.41;39.31
46379;BME280;32084;42.254;22.744;2022-08-19T11:19:42;94935.94;;;31.53;39.07
46379;BME280;32084;42.254;22.744;2022-08-19T11:22:08;94936.97;;;31.57;39.62
46379;BME280;32084;42.254;22.744;2022-08-19T11:24:35;94937.31;;;31.69;37.57
46379;BME280;32084;42.254;22.744;2022-08-19T11:27:05;94939.50;;;31.73;39.55
46379;BME280;32084;42.254;22.744;2022-08-19T11:29:32;94925.16;;;31.70;39.95
46379;BME280;32084;42.254;22.744;2022-08-19T11:32:00;94925.97;;;31.71;39.31
46379;BME280;32084;42.254;22.744;2022-08-19T11:34:28;94932.22;;;31.77;37.26
46379;BME280;32084;42.254;22.744;2022-08-19T11:36:55;94913.34;;;31.84;37.35
46379;BME280;32084;42.254;22.744;2022-08-19T11:39:26;94918.25;;;31.87;38.07
46379;BME280;32084;42.254;22.744;2022-08-19T11:41:52;94916.84;;;31.89;36.88
46379;BME280;32084;42.254;22.744;2022-08-19T11:44:18;94910.81;;;32.01;37.77
46379;BME280;32084;42.254;22.744;2022-08-19T11:46:45;94902.53;;;32.01;36.35
46379;BME280;32084;42.254;22.744;2022-08-19T11:49:13;94909.88;;;31.92;37.05
46379;BME280;32084;42.254;22.744;2022-08-19T11:51:39;94901.56;;;31.92;36.86
46379;BME280;32084;42.254;22.744;2022-08-19T11:54:07;94893.88;;;31.89;39.27
46379;BME280;32084;42.254;22.744;2022-08-19T11:56:33;94895.22;;;31.91;37.42
46379;BME280;32084;42.254;22.744;2022-08-19T11:59:00;94890.72;;;31.96;36.25
46379;BME280;32084;42.254;22.744;2022-08-19T12:01:26;94880.72;;;32.00;37.98
46379;BME280;32084;42.254;22.744;2022-08-19T12:03:53;94885.50;;;31.94;39.36
46379;BME280;32084;42.254;22.744;2022-08-19T12:06:24;94872.50;;;31.95;38.72
46379;BME280;32084;42.254;22.744;2022-08-19T12:08:55;94877.84;;;31.91;37.93
46379;BME280;32084;42.254;22.744;2022-08-19T12:11:21;94878.13;;;31.89;36.34
46379;BME280;32084;42.254;22.744;2022-08-19T12:13:47;94878.94;;;31.90;38.25
46379;BME280;32084;42.254;22.744;2022-08-19T12:16:15;94884.69;;;31.94;36.23
46379;BME280;32084;42.254;22.744;2022-08-19T12:18:42;94872.72;;;31.98;35.56
46379;BME280;32084;42.254;22.744;2022-08-19T12:21:11;94874.88;;;32.01;34.94
46379;BME280;32084;42.254;22.744;2022-08-19T12:23:42;94862.91;;;32.06;36.23
46379;BME280;32084;42.254;22.744;2022-08-19T12:26:10;94865.31;;;32.13;36.70
46379;BME280;32084;42.254;22.744;2022-08-19T12:28:36;94862.53;;;32.13;36.06
46379;BME280;32084;42.254;22.744;2022-08-19T12:31:02;94856.19;;;32.12;37.72
46379;BME280;32084;42.254;22.744;2022-08-19T12:33:28;94864.72;;;32.16;38.09
46379;BME280;32084;42.254;22.744;2022-08-19T12:35:54;94852.59;;;32.12;39.71
46379;BME280;32084;42.254;22.744;2022-08-19T12:38:25;94851.06;;;32.05;39.15
46379;BME280;32084;42.254;22.744;2022-08-19T12:40:51;94843.34;;;32.02;39.79
46379;BME280;32084;42.254;22.744;2022-08-19T12:43:18;94850.06;;;31.96;36.74
46379;BME280;32084;42.254;22.744;2022-08-19T12:45:45;94843.44;;;31.97;37.55
46379;BME280;32084;42.254;22.744;2022-08-19T12:48:11;94841.69;;;32.01;37.58
46379;BME280;32084;42.254;22.744;2022-08-19T12:50:41;94840.28;;;32.04;37.54
46379;BME280;32084;42.254;22.744;2022-08-19T12:53:07;94838.88;;;32.06;36.17
46379;BME280;32084;42.254;22.744;2022-08-19T12:55:33;94839.09;;;32.10;34.90
46379;BME280;32084;42.254;22.744;2022-08-19T12:57:59;94833.44;;;32.15;35.37
46379;BME280;32084;42.254;22.744;2022-08-19T13:00:27;94828.44;;;32.17;36.76
46379;BME280;32084;42.254;22.744;2022-08-19T13:02:53;94822.19;;;32.12;37.64
46379;BME280;32084;42.254;22.744;2022-08-19T13:05:20;94826.97;;;32.06;37.96